Airfield :







YOU CAN JOIN US ON...

 
LOGIN :

Register | Disclaimer

   EN    FR    IT 

 









Legend :    VFR   Marginal VFR   IFR   Intensive IFR   Very Intensive IFR
Visi :
Ceiling :
>= 8 km
>= 3000ft
5 to 8 km
1000 to 3000 ft
1500m to 5 km
500 to 1000 ft
800 to 1500m
200 to 500 ft
< 800m
< 200 ft
Symbols :   Thunderstorms  Fog  Heavy snow  Heavy precipitations  Wind > 20 kt






- Airport Elevation : 76 ft
- IATA code : PWM


KPWM - Portland International Jetport

CURRENT METAR :
  • 182351Z 31008KT 10SM SCT075 SCT200 26/14 A2986 RMK AO2 SLP110 T02560139 10311 20256 53017

EXPIRED METARs :
  • 182251Z 32008KT 10SM SCT070 BKN200 27/13 A2984 RMK AO2 SLP103 T02670133
  • 182151Z 28009KT 10SM SCT050 SCT200 28/13 A2982 RMK AO2 SLP098 T02780133
  • 182051Z 29011KT 10SM SCT065 SCT150 30/13 A2981 RMK AO2 SLP093 T03000133 53002
  • 181951Z 27008G16KT 10SM SCT075 SCT150 31/14 A2981 RMK AO2 SLP093 T03060139

TAF KPWM
Valid from the 19 at 00:00 until the 20 at 00:00 UTC


182320Z 1900/1924 32008KT P6SM SCT070
FM191700 24006KT P6SM FEW250
FM192000 19007KT P6SM FEW250
KZBW FIR / North America



MET'MAP, your aeronautical weather chart ! - Copyright ORBIFLY December 2007 - Disclaimer

ORBIFLY MET'MAP TEAM :

Programming & Development : Alexandra Zaïnal
Original concept : Baudouin d'Aumeries
Technical & hardware support : Manuel Goepfert
Assistance : Marc-Olivier Méhu




SOURCES & CREDITS :

   NOAA